createdAt,value
2023-03-06T00:00:00.532Z,0
2023-03-06T00:01:17.513Z,0.22
2023-03-06T00:02:34.527Z,0
2023-03-06T00:03:51.649Z,0
2023-03-06T00:05:08.535Z,0
2023-03-06T00:06:25.554Z,0.47
2023-03-06T00:07:42.501Z,0.11
2023-03-06T00:08:59.512Z,0.24
2023-03-06T00:10:16.575Z,0.22
2023-03-06T00:11:33.535Z,0.18
2023-03-06T00:12:50.532Z,0.22
2023-03-06T00:14:07.523Z,0.09
2023-03-06T00:15:24.693Z,0.37
2023-03-06T00:16:41.526Z,0
2023-03-06T00:17:58.532Z,0
2023-03-06T00:19:15.522Z,0.2
2023-03-06T00:20:32.567Z,0.37
2023-03-06T00:21:49.540Z,0
2023-03-06T00:23:06.557Z,0
2023-03-06T00:24:23.571Z,0
2023-03-06T00:25:40.562Z,0.23
2023-03-06T00:26:57.538Z,0
2023-03-06T00:28:14.572Z,0.12
2023-03-06T00:29:31.535Z,0
2023-03-06T00:30:48.634Z,0
2023-03-06T00:32:05.578Z,0
2023-03-06T00:33:22.551Z,0
2023-03-06T00:34:39.556Z,0
2023-03-06T00:35:56.570Z,0.27
2023-03-06T00:37:13.632Z,0.21
2023-03-06T00:38:30.545Z,0
2023-03-06T00:39:47.555Z,0
2023-03-06T00:41:04.555Z,0.15
2023-03-06T00:42:21.612Z,0.26
2023-03-06T00:43:38.581Z,0.38
2023-03-06T00:44:55.671Z,0.39
2023-03-06T00:46:12.651Z,0.31
2023-03-06T00:47:29.574Z,0.4
2023-03-06T00:48:46.571Z,0.36
2023-03-06T00:50:03.598Z,0.11
2023-03-06T00:51:20.606Z,0.22
2023-03-06T00:52:37.654Z,0.2
2023-03-06T00:53:54.592Z,0.22
2023-03-06T00:55:11.588Z,0.07
2023-03-06T00:56:28.631Z,0.33
2023-03-06T00:57:45.659Z,0.32
2023-03-06T00:59:02.657Z,0.27
2023-03-06T01:00:19.609Z,0.31
2023-03-06T01:01:36.683Z,0.28
2023-03-06T01:02:53.639Z,0.31
2023-03-06T01:04:10.581Z,0.17
2023-03-06T01:05:27.615Z,0.28
2023-03-06T01:06:44.613Z,0.31
2023-03-06T01:08:01.685Z,0.18
2023-03-06T01:09:18.644Z,0
2023-03-06T01:10:35.693Z,0
2023-03-06T01:11:52.676Z,0.22
2023-03-06T01:13:09.593Z,0.24
2023-03-06T01:14:26.735Z,0
2023-03-06T01:15:43.604Z,0
2023-03-06T01:17:00.640Z,0
2023-03-06T01:18:17.613Z,0
2023-03-06T01:19:34.630Z,0
2023-03-06T01:20:51.626Z,0
2023-03-06T01:22:08.581Z,0
2023-03-06T01:23:25.619Z,0.22
2023-03-06T01:24:42.596Z,0.39
2023-03-06T01:25:59.635Z,0.33
2023-03-06T01:27:16.893Z,0.23
2023-03-06T01:28:33.648Z,0.18
2023-03-06T01:29:50.620Z,0.19
2023-03-06T01:31:07.955Z,0
2023-03-06T01:32:24.734Z,0.22
2023-03-06T01:33:41.639Z,0.37
2023-03-06T01:34:58.633Z,0.29
2023-03-06T01:36:15.637Z,0
2023-03-06T01:37:32.618Z,0.33
2023-03-06T01:38:49.596Z,0.47
2023-03-06T01:40:06.632Z,0.48
2023-03-06T01:41:23.638Z,0.48
2023-03-06T01:42:40.660Z,0.75
2023-03-06T01:43:57.657Z,0.62
2023-03-06T01:45:14.640Z,0.66
2023-03-06T01:46:31.688Z,0.54
2023-03-06T01:47:48.699Z,0.49
2023-03-06T01:49:05.685Z,0.46
2023-03-06T01:50:22.641Z,0.82
2023-03-06T01:51:39.818Z,0.65
2023-03-06T01:52:56.652Z,0.68
2023-03-06T01:54:13.687Z,0.95
2023-03-06T01:55:30.662Z,0.63
2023-03-06T01:56:47.678Z,0.67
2023-03-06T01:58:04.688Z,0.55
2023-03-06T01:59:21.644Z,0.61
2023-03-06T02:00:38.642Z,0.63
2023-03-06T02:01:55.812Z,0.62
2023-03-06T02:03:12.747Z,0.49
2023-03-06T02:04:29.665Z,0.59
2023-03-06T02:05:46.674Z,0.41
2023-03-06T02:07:03.687Z,0.46
2023-03-06T02:08:20.673Z,0.38
2023-03-06T02:09:37.677Z,0.23
2023-03-06T02:10:54.660Z,0.59
2023-03-06T02:12:11.724Z,0.49
2023-03-06T02:13:28.668Z,0.72
2023-03-06T02:14:45.724Z,0.61
2023-03-06T02:16:02.730Z,0.72
2023-03-06T02:17:19.681Z,0.73
2023-03-06T02:18:36.704Z,1.07
2023-03-06T02:19:53.702Z,0.87
2023-03-06T02:21:10.704Z,0.53
2023-03-06T02:22:27.687Z,0.76
2023-03-06T02:23:44.675Z,0.75
2023-03-06T02:25:01.800Z,0.66
2023-03-06T02:26:18.680Z,0.59
2023-03-06T02:27:35.826Z,0.48
2023-03-06T02:28:52.683Z,0.5
2023-03-06T02:30:09.783Z,0.67
2023-03-06T02:31:26.691Z,0.79
2023-03-06T02:32:43.735Z,0.63
2023-03-06T02:34:00.749Z,0.72
2023-03-06T02:35:17.755Z,0.57
2023-03-06T02:36:35.456Z,0.8
2023-03-06T02:37:52.788Z,0.96
2023-03-06T02:39:09.712Z,0.68
2023-03-06T02:40:26.816Z,0.58
2023-03-06T02:41:43.720Z,0.42
2023-03-06T02:43:00.756Z,0.6
2023-03-06T02:44:17.770Z,0.56
2023-03-06T02:45:35.524Z,0.6
2023-03-06T02:46:52.786Z,0.7
2023-03-06T02:48:09.787Z,0.84
2023-03-06T02:49:26.765Z,0.78
2023-03-06T02:50:43.793Z,1.03
2023-03-06T02:52:00.716Z,0.53
2023-03-06T02:53:17.814Z,0.61
2023-03-06T02:54:34.713Z,0.76
2023-03-06T02:55:51.818Z,0.64
2023-03-06T02:57:08.758Z,0.68
2023-03-06T02:58:26.486Z,0.69
2023-03-06T02:59:44.099Z,1.76
2023-03-06T03:01:00.838Z,0.92
2023-03-06T03:02:17.784Z,0.77
2023-03-06T03:03:34.796Z,0.89
2023-03-06T03:04:51.824Z,0.66
2023-03-06T03:06:08.789Z,1.03
2023-03-06T03:07:25.773Z,1.15
2023-03-06T03:08:42.736Z,0.78
2023-03-06T03:09:59.720Z,0.84
2023-03-06T03:11:16.742Z,0.8
2023-03-06T03:12:33.858Z,0.49
2023-03-06T03:13:50.776Z,0.62
2023-03-06T03:15:07.732Z,0.77
2023-03-06T03:16:24.732Z,1.14
2023-03-06T03:17:42.001Z,0.83
2023-03-06T03:18:58.965Z,0.85
2023-03-06T03:20:15.812Z,0.85
2023-03-06T03:21:32.742Z,0.51
2023-03-06T03:22:49.826Z,1.29
2023-03-06T03:24:06.762Z,1.06
2023-03-06T03:25:23.755Z,0.59
2023-03-06T03:26:40.804Z,0.61
2023-03-06T03:27:57.792Z,0.74
2023-03-06T03:29:14.789Z,0.49
2023-03-06T03:30:31.771Z,0.91
2023-03-06T03:31:48.772Z,0.62
2023-03-06T03:33:05.765Z,0.6
2023-03-06T03:34:22.772Z,0.53
2023-03-06T03:35:39.820Z,0.35
2023-03-06T03:36:57.512Z,0.73
2023-03-06T03:38:14.803Z,0.67
2023-03-06T03:39:31.876Z,0.43
2023-03-06T03:40:48.790Z,0.54
2023-03-06T03:42:05.776Z,0.51
2023-03-06T03:43:22.809Z,0.45
2023-03-06T03:44:39.775Z,0.73
2023-03-06T03:45:56.824Z,0.64
2023-03-06T03:47:13.787Z,0.76
2023-03-06T03:48:30.840Z,0.83
2023-03-06T03:49:48.341Z,0.7
2023-03-06T03:51:04.810Z,0.48
2023-03-06T03:52:21.793Z,0.79
2023-03-06T03:53:38.858Z,0.6
2023-03-06T03:54:55.788Z,0.66
2023-03-06T03:56:12.798Z,0.7
2023-03-06T03:57:29.805Z,0.48
2023-03-06T03:58:46.845Z,0.44
2023-03-06T04:00:03.823Z,0.71
2023-03-06T04:01:20.802Z,0.75
2023-03-06T04:02:37.869Z,0.73
2023-03-06T04:03:54.879Z,0.79
2023-03-06T04:05:11.882Z,0.66
2023-03-06T04:06:28.827Z,0.73
2023-03-06T04:07:45.831Z,0.58
2023-03-06T04:09:02.882Z,0.88
2023-03-06T04:10:19.825Z,0.98
2023-03-06T04:11:36.864Z,0.75
2023-03-06T04:12:53.824Z,0.87
2023-03-06T04:14:10.880Z,1.05
2023-03-06T04:15:27.840Z,0.76
2023-03-06T04:16:44.813Z,1.2
2023-03-06T04:18:01.811Z,1.16
2023-03-06T04:19:18.884Z,1.12
2023-03-06T04:20:35.808Z,1.2
2023-03-06T04:21:52.834Z,0.76
2023-03-06T04:23:09.822Z,0.86
2023-03-06T04:24:26.875Z,0.7
2023-03-06T04:25:43.834Z,0.69
2023-03-06T04:27:01.615Z,0.3
2023-03-06T04:28:18.910Z,0.12
2023-03-06T04:29:35.897Z,0.51
2023-03-06T04:30:52.857Z,0.26
2023-03-06T04:32:09.860Z,0
2023-03-06T04:33:26.938Z,0.2
2023-03-06T04:34:43.843Z,0.4
2023-03-06T04:36:00.837Z,0.23
2023-03-06T04:37:17.914Z,0.29
2023-03-06T04:38:34.925Z,0.41
2023-03-06T04:39:51.875Z,0.43
2023-03-06T04:41:08.835Z,0.71
2023-03-06T04:42:25.861Z,0.64
2023-03-06T04:43:42.879Z,0.71
2023-03-06T04:44:59.854Z,0.65
2023-03-06T04:46:16.884Z,0.69
2023-03-06T04:47:33.871Z,1.06
2023-03-06T04:48:50.887Z,0.45
2023-03-06T04:50:07.848Z,0.79
2023-03-06T04:51:24.931Z,0.84
2023-03-06T04:52:41.886Z,0.94
2023-03-06T04:53:58.919Z,0.75
2023-03-06T04:55:16.121Z,0.7
2023-03-06T04:56:32.874Z,1.08
2023-03-06T04:57:49.881Z,0.82
2023-03-06T04:59:06.906Z,1.23
2023-03-06T05:00:23.888Z,1.08
2023-03-06T05:01:40.872Z,0.99
2023-03-06T05:02:57.903Z,1.1
2023-03-06T05:04:14.922Z,0.9
2023-03-06T05:05:31.886Z,0.72
2023-03-06T05:06:48.878Z,1.25
2023-03-06T05:08:05.906Z,0.83
2023-03-06T05:09:23.069Z,0.59
2023-03-06T05:10:40.297Z,0.73
2023-03-06T05:11:56.921Z,1.2
2023-03-06T05:13:13.924Z,1.05
2023-03-06T05:14:30.919Z,0.63
2023-03-06T05:15:47.992Z,1.02
2023-03-06T05:17:04.969Z,0.5
2023-03-06T05:18:21.899Z,1.2
2023-03-06T05:19:38.891Z,0.56
2023-03-06T05:20:55.933Z,0.7
2023-03-06T05:22:12.882Z,0.78
2023-03-06T05:23:29.964Z,1.07
2023-03-06T05:24:46.922Z,1.38
2023-03-06T05:26:03.905Z,0.9
2023-03-06T05:27:20.955Z,0.94
2023-03-06T05:28:37.902Z,1.25
2023-03-06T05:29:54.965Z,0.84
2023-03-06T05:31:11.933Z,0.94
2023-03-06T05:32:28.979Z,1.24
2023-03-06T05:33:45.905Z,0.64
2023-03-06T05:35:02.955Z,0.88
2023-03-06T05:36:19.995Z,1.16
2023-03-06T05:37:36.988Z,0.88
2023-03-06T05:38:54.855Z,0.67
2023-03-06T05:40:10.918Z,0.72
2023-03-06T05:41:27.935Z,0.46
2023-03-06T05:42:44.949Z,0.67
2023-03-06T05:44:01.971Z,0.54
2023-03-06T05:45:18.943Z,1.15
2023-03-06T05:46:35.971Z,0.82
2023-03-06T05:47:52.945Z,1.09
2023-03-06T05:49:09.974Z,0.88
2023-03-06T05:50:26.947Z,1.11
2023-03-06T05:51:43.974Z,0.84
2023-03-06T05:53:00.932Z,1.44
2023-03-06T05:54:18.048Z,0.9
2023-03-06T05:55:35.655Z,0.89
2023-03-06T05:56:52.951Z,1.22
2023-03-06T05:58:09.964Z,0.62
2023-03-06T05:59:26.944Z,0.64
2023-03-06T06:00:44.252Z,1.04
2023-03-06T06:02:00.984Z,0.73
2023-03-06T06:03:18.016Z,0.87
2023-03-06T06:04:34.966Z,1.12
2023-03-06T06:05:52.054Z,1.22
2023-03-06T06:07:08.950Z,0.97
2023-03-06T06:08:25.968Z,0.64
2023-03-06T06:09:43.011Z,0.55
2023-03-06T06:11:00.003Z,1.07
2023-03-06T06:12:16.965Z,0.86
2023-03-06T06:13:33.983Z,0.59
2023-03-06T06:14:51.024Z,0.76
2023-03-06T06:16:08.098Z,1.17
2023-03-06T06:17:25.008Z,1.29
2023-03-06T06:18:42.108Z,0.88
2023-03-06T06:19:59.026Z,1.11
2023-03-06T06:21:15.995Z,1.26
2023-03-06T06:22:32.970Z,1.19
2023-03-06T06:23:49.972Z,1.24
2023-03-06T06:25:07.037Z,0.67
2023-03-06T06:26:23.970Z,1.2
2023-03-06T06:27:40.971Z,0.75
2023-03-06T06:29:00.053Z,1.19
2023-03-06T06:30:15.221Z,0.76
2023-03-06T06:31:32.119Z,0.71
2023-03-06T06:32:49.000Z,0.77
2023-03-06T06:34:06.021Z,0.61
2023-03-06T06:35:23.133Z,0.68
2023-03-06T06:36:40.009Z,0.73
2023-03-06T06:37:57.009Z,1.1
2023-03-06T06:39:14.005Z,1.19
2023-03-06T06:40:31.059Z,0.89
2023-03-06T06:41:59.717Z,0.59
2023-03-06T06:43:05.046Z,0.87
2023-03-06T06:44:22.054Z,0.79
2023-03-06T06:45:39.000Z,1.18
2023-03-06T06:47:26.311Z,0.85
2023-03-06T06:48:13.047Z,1.55
2023-03-06T06:49:30.010Z,1.32
2023-03-06T06:50:47.023Z,0.86
2023-03-06T06:52:04.096Z,0.95
2023-03-06T06:53:21.024Z,1.28
2023-03-06T06:54:38.057Z,1.23
2023-03-06T06:55:55.047Z,1.48
2023-03-06T06:57:12.097Z,0.95
2023-03-06T06:58:29.142Z,0.46
2023-03-06T06:59:46.043Z,1.58
2023-03-06T07:01:03.026Z,1.21
2023-03-06T07:02:20.187Z,1.15
2023-03-06T07:03:37.066Z,0.64
2023-03-06T07:05:03.414Z,1.25
2023-03-06T07:06:11.021Z,1.34
2023-03-06T07:07:28.058Z,1.43
2023-03-06T07:08:45.028Z,0.95
2023-03-06T07:10:02.138Z,1.1
2023-03-06T07:11:19.068Z,1.4
2023-03-06T07:12:36.063Z,1.03
2023-03-06T07:13:53.026Z,0.91
2023-03-06T07:15:10.098Z,1.11
2023-03-06T07:16:27.044Z,1.36
2023-03-06T07:17:44.200Z,1.53
2023-03-06T07:19:01.142Z,0.79
2023-03-06T07:20:18.086Z,1.05
2023-03-06T07:21:35.103Z,0.89
2023-03-06T07:22:52.143Z,1.11
2023-03-06T07:24:09.040Z,1
2023-03-06T07:25:26.068Z,1.39
2023-03-06T07:26:43.132Z,1.14
2023-03-06T07:28:00.384Z,0.99
2023-03-06T07:29:17.070Z,1.59
2023-03-06T07:30:34.193Z,1.23
2023-03-06T07:31:51.051Z,1.61
2023-03-06T07:33:08.082Z,1.19
2023-03-06T07:34:25.096Z,0.99
2023-03-06T07:35:42.153Z,1.39
2023-03-06T07:36:59.148Z,1.5
2023-03-06T07:38:16.087Z,1.23
2023-03-06T07:39:33.178Z,1.65
2023-03-06T07:40:50.711Z,1.33
2023-03-06T07:42:07.166Z,1.28
2023-03-06T07:43:24.125Z,1.03
2023-03-06T07:44:41.139Z,1.5
2023-03-06T07:45:58.172Z,0.85
2023-03-06T07:47:15.081Z,1.55
2023-03-06T07:48:32.095Z,1.95
2023-03-06T07:49:49.103Z,1.96
2023-03-06T07:51:06.167Z,1.01
2023-03-06T07:52:23.131Z,1.67
2023-03-06T07:53:40.105Z,1.72
2023-03-06T07:54:57.100Z,1.78
2023-03-06T07:56:14.206Z,0.81
2023-03-06T07:57:31.160Z,1.59
2023-03-06T07:58:48.163Z,1.79
2023-03-06T08:00:05.132Z,1.13
2023-03-06T08:01:22.122Z,1.03
2023-03-06T08:02:39.226Z,1.36
2023-03-06T08:03:56.233Z,1.24
2023-03-06T08:05:13.217Z,1.66
2023-03-06T08:06:30.141Z,1.75
2023-03-06T08:07:47.152Z,1.03
2023-03-06T08:09:04.143Z,0.87
2023-03-06T08:10:21.149Z,1.63
2023-03-06T08:11:38.137Z,1.5
2023-03-06T08:12:55.236Z,1.38
2023-03-06T08:14:12.135Z,1.26
2023-03-06T08:15:29.190Z,1.55
2023-03-06T08:16:46.202Z,0.99
2023-03-06T08:18:03.158Z,1.58
2023-03-06T08:19:20.203Z,0.86
2023-03-06T08:20:37.154Z,0.74
2023-03-06T08:21:54.120Z,0.99
2023-03-06T08:23:11.609Z,1.02
2023-03-06T08:24:28.128Z,1.31
2023-03-06T08:25:45.211Z,0.97
2023-03-06T08:27:04.874Z,1.18
2023-03-06T08:28:22.227Z,1.76
2023-03-06T08:29:39.341Z,1.06
2023-03-06T08:30:56.163Z,1.11
2023-03-06T08:32:13.218Z,1.02
2023-03-06T08:33:30.173Z,1.44
2023-03-06T08:34:47.856Z,1.89
2023-03-06T08:36:04.168Z,1.29
2023-03-06T08:37:21.348Z,0.97
2023-03-06T08:38:38.743Z,1.38
2023-03-06T08:39:55.170Z,1.01
2023-03-06T08:41:12.175Z,1.08
2023-03-06T08:42:29.278Z,1.02
2023-03-06T08:43:46.240Z,1.08
2023-03-06T08:45:03.186Z,1.18
2023-03-06T08:46:20.204Z,0.96
2023-03-06T08:47:37.409Z,0.9
2023-03-06T08:48:54.196Z,0.75
2023-03-06T08:50:11.177Z,1.02
2023-03-06T08:51:28.755Z,1.23
2023-03-06T08:52:46.197Z,1.14
2023-03-06T08:54:03.198Z,0.81
2023-03-06T08:55:20.228Z,0.8
2023-03-06T08:56:37.189Z,1.29
2023-03-06T08:57:54.191Z,1.75
2023-03-06T08:59:11.298Z,1.08
2023-03-06T09:00:30.330Z,0.78
2023-03-06T09:01:48.254Z,1.6
2023-03-06T09:03:05.235Z,1.22
2023-03-06T09:04:22.163Z,0.82
2023-03-06T09:05:39.194Z,1.25
2023-03-06T09:06:56.208Z,1.18
2023-03-06T09:08:13.252Z,1.08
2023-03-06T09:09:30.221Z,0.9
2023-03-06T09:10:47.303Z,1.18
2023-03-06T09:12:04.254Z,1.3
2023-03-06T09:13:21.274Z,1.22
2023-03-06T09:14:38.250Z,1.32
2023-03-06T09:15:55.420Z,0.71
2023-03-06T09:17:12.432Z,1
2023-03-06T09:18:29.244Z,0.65
2023-03-06T09:19:46.307Z,1.11
2023-03-06T09:21:03.266Z,1.28
2023-03-06T09:22:20.212Z,0.45
2023-03-06T09:23:37.267Z,1.02
2023-03-06T09:24:54.237Z,1.26
2023-03-06T09:26:11.289Z,1.57
2023-03-06T09:27:28.224Z,1.19
2023-03-06T09:28:45.228Z,0.97
2023-03-06T09:30:02.267Z,1.57
2023-03-06T09:31:19.340Z,1.16
2023-03-06T09:32:36.337Z,1.14
2023-03-06T09:33:53.263Z,0.9
2023-03-06T09:35:10.237Z,0.7
2023-03-06T09:36:27.239Z,1.67
2023-03-06T09:37:44.243Z,1
2023-03-06T09:39:01.289Z,1.28
2023-03-06T09:40:18.215Z,1.8
2023-03-06T09:41:35.260Z,0.62
2023-03-06T09:42:52.253Z,0.96
2023-03-06T09:44:09.308Z,1.57
2023-03-06T09:45:26.274Z,1.18
2023-03-06T09:46:43.253Z,1.45
2023-03-06T09:48:00.241Z,1.46
2023-03-06T09:49:17.397Z,0.82
2023-03-06T09:50:34.286Z,0.68
2023-03-06T09:51:51.333Z,0.24
2023-03-06T09:53:08.256Z,0.85
2023-03-06T09:54:25.388Z,1.48
2023-03-06T09:55:42.391Z,1.12
2023-03-06T09:56:59.349Z,1.39
2023-03-06T09:58:16.292Z,1
2023-03-06T09:59:33.432Z,0.97
2023-03-06T10:00:50.414Z,1.05
2023-03-06T10:02:07.384Z,1.66
2023-03-06T10:03:24.344Z,1.32
2023-03-06T10:04:41.395Z,1.72
2023-03-06T10:05:58.326Z,1.56
2023-03-06T10:07:15.656Z,1.22
2023-03-06T10:08:32.323Z,1.07
2023-03-06T10:09:49.368Z,1.44
2023-03-06T10:11:06.325Z,1.28
2023-03-06T10:12:24.718Z,1.64
2023-03-06T10:13:40.322Z,1.13
2023-03-06T10:14:57.326Z,1.86
2023-03-06T10:16:14.377Z,1.55
2023-03-06T10:17:31.353Z,1.56
2023-03-06T10:18:48.362Z,1.15
2023-03-06T10:20:05.304Z,2.21
2023-03-06T10:21:22.296Z,1.71
2023-03-06T10:22:39.375Z,1.35
2023-03-06T10:23:56.315Z,0.89
2023-03-06T10:25:13.308Z,1.02
2023-03-06T10:26:30.500Z,0.72
2023-03-06T10:27:47.326Z,1.01
2023-03-06T10:29:04.931Z,1.69
2023-03-06T10:30:22.558Z,1.18
2023-03-06T10:31:39.334Z,0.89
2023-03-06T10:32:56.394Z,1.73
2023-03-06T10:34:13.360Z,2.43
2023-03-06T10:35:31.000Z,1.48
2023-03-06T10:36:47.389Z,1.79
2023-03-06T10:38:04.348Z,1.24
2023-03-06T10:39:21.367Z,0.91
2023-03-06T10:40:38.366Z,1.83
2023-03-06T10:41:55.328Z,1.58
2023-03-06T10:43:12.542Z,1.97
2023-03-06T10:44:29.301Z,1.76
2023-03-06T10:45:49.108Z,1.07
2023-03-06T10:47:03.371Z,0.67
2023-03-06T10:48:20.348Z,1.36
2023-03-06T10:49:37.358Z,2.43
2023-03-06T10:50:54.341Z,0.95
2023-03-06T10:52:11.350Z,2.18
2023-03-06T10:53:28.345Z,1.38
2023-03-06T10:54:45.354Z,1.22
2023-03-06T10:56:02.362Z,1.37
2023-03-06T10:57:19.365Z,1.27
2023-03-06T10:58:36.446Z,2.03
2023-03-06T10:59:53.356Z,3.41
2023-03-06T11:01:10.352Z,2.76
2023-03-06T11:02:27.395Z,2.2
2023-03-06T11:03:44.429Z,1.42
2023-03-06T11:05:01.450Z,1.43
2023-03-06T11:06:18.344Z,1.05
2023-03-06T11:07:35.408Z,1.41
2023-03-06T11:08:52.357Z,2.88
2023-03-06T11:10:09.390Z,1.32
2023-03-06T11:11:37.011Z,0.82
2023-03-06T11:12:43.380Z,1.14
2023-03-06T11:14:00.391Z,1.38
2023-03-06T11:15:17.422Z,1.7
2023-03-06T11:16:34.417Z,1.51
2023-03-06T11:17:51.497Z,1.47
2023-03-06T11:19:08.388Z,1.78
2023-03-06T11:20:25.375Z,2.34
2023-03-06T11:21:42.354Z,1.94
2023-03-06T11:22:59.595Z,1.43
2023-03-06T11:24:16.396Z,1.19
2023-03-06T11:25:33.404Z,1.57
2023-03-06T11:26:51.261Z,1.26
2023-03-06T11:28:07.450Z,1.25
2023-03-06T11:29:24.460Z,2.24
2023-03-06T11:30:41.369Z,1.33
2023-03-06T11:31:58.363Z,0.96
2023-03-06T11:33:15.430Z,1.17
2023-03-06T11:34:32.411Z,1.1
2023-03-06T11:35:49.415Z,0.81
2023-03-06T11:37:06.389Z,0.95
2023-03-06T11:38:23.398Z,1.03
2023-03-06T11:39:40.452Z,0.88
2023-03-06T11:40:57.403Z,1.32
2023-03-06T11:42:14.447Z,1.58
2023-03-06T11:43:31.431Z,1.19
2023-03-06T11:44:48.416Z,1.17
2023-03-06T11:46:05.408Z,0.84
2023-03-06T11:47:22.403Z,1.06
2023-03-06T11:48:39.486Z,1.98
2023-03-06T11:49:56.500Z,1.2
2023-03-06T11:51:13.467Z,1.4
2023-03-06T11:52:30.402Z,0.78
2023-03-06T11:53:50.056Z,0.52
2023-03-06T11:55:07.449Z,0.72
2023-03-06T11:56:24.422Z,1.18
2023-03-06T11:57:41.406Z,1.48
2023-03-06T11:58:58.470Z,2.07
2023-03-06T12:00:15.420Z,1.56
2023-03-06T12:01:32.457Z,1.26
2023-03-06T12:02:49.412Z,1.67
2023-03-06T12:04:06.470Z,1.13
2023-03-06T12:05:23.608Z,1.56
2023-03-06T12:06:40.421Z,1.85
2023-03-06T12:07:57.417Z,0.82
2023-03-06T12:09:14.487Z,1.21
2023-03-06T12:10:31.436Z,0.79
2023-03-06T12:11:48.466Z,1.03
2023-03-06T12:13:05.451Z,0.85
2023-03-06T12:14:22.440Z,0.94
2023-03-06T12:15:39.458Z,1.17
2023-03-06T12:16:56.490Z,1.18
2023-03-06T12:18:13.751Z,0.41
2023-03-06T12:19:30.477Z,0.69
2023-03-06T12:20:47.448Z,1.05
2023-03-06T12:22:04.442Z,1.41
2023-03-06T12:23:21.469Z,0.91
2023-03-06T12:24:38.448Z,1.28
2023-03-06T12:25:55.498Z,1.03
2023-03-06T12:27:12.460Z,1.09
2023-03-06T12:28:29.507Z,1.07
2023-03-06T12:29:46.492Z,0.9
2023-03-06T12:31:03.486Z,1.62
2023-03-06T12:32:20.481Z,0.98
2023-03-06T12:33:37.486Z,1.34
2023-03-06T12:34:54.481Z,1.94
2023-03-06T12:36:11.490Z,3.55
2023-03-06T12:37:28.465Z,2.61
2023-03-06T12:38:45.494Z,1.84
2023-03-06T12:40:02.541Z,2.27
2023-03-06T12:41:19.472Z,1.5
2023-03-06T12:42:36.488Z,0.72
2023-03-06T12:43:53.528Z,1.12
2023-03-06T12:45:10.503Z,1.31
2023-03-06T12:46:27.512Z,1.33
2023-03-06T12:47:44.501Z,1.82
2023-03-06T12:49:01.500Z,1.52
2023-03-06T12:50:18.531Z,1.81
2023-03-06T12:51:35.514Z,1.86
2023-03-06T12:52:52.504Z,1.67
2023-03-06T12:54:09.488Z,1.65
2023-03-06T12:55:26.479Z,1.35
2023-03-06T12:56:43.522Z,1.7
2023-03-06T12:58:00.526Z,1.92
2023-03-06T12:59:17.515Z,1.34
2023-03-06T13:00:34.496Z,1.39
2023-03-06T13:01:51.584Z,0.95
2023-03-06T13:03:08.571Z,1.21
2023-03-06T13:04:25.511Z,1.37
2023-03-06T13:05:42.526Z,1.9
2023-03-06T13:06:59.498Z,1.42
2023-03-06T13:08:16.550Z,2.83
2023-03-06T13:09:33.512Z,2.63
2023-03-06T13:10:50.526Z,1.86
2023-03-06T13:12:07.536Z,1.6
2023-03-06T13:13:24.569Z,2.04
2023-03-06T13:14:48.593Z,0.86
2023-03-06T13:15:58.543Z,1.42
2023-03-06T13:17:15.552Z,1.45
2023-03-06T13:18:32.551Z,1.77
2023-03-06T13:19:49.564Z,1.72
2023-03-06T13:21:06.550Z,2
2023-03-06T13:22:23.547Z,2.11
2023-03-06T13:23:41.407Z,1.14
2023-03-06T13:25:03.572Z,1.95
2023-03-06T13:26:15.555Z,1.5
2023-03-06T13:27:32.535Z,1.76
2023-03-06T13:28:49.536Z,1.57
2023-03-06T13:30:06.635Z,1.27
2023-03-06T13:31:27.413Z,1.8
2023-03-06T13:32:40.595Z,1.84
2023-03-06T13:33:57.552Z,2.02
2023-03-06T13:35:14.626Z,2.65
2023-03-06T13:36:31.580Z,1.59
2023-03-06T13:37:48.542Z,1.84
2023-03-06T13:39:05.544Z,1.91
2023-03-06T13:40:22.599Z,1.86
2023-03-06T13:41:39.605Z,2.53
2023-03-06T13:42:56.634Z,1.11
2023-03-06T13:44:13.543Z,1.66
2023-03-06T13:45:30.982Z,1.89
2023-03-06T13:46:47.569Z,1.4
2023-03-06T13:48:30.141Z,1.48
2023-03-06T13:49:21.571Z,2.11
2023-03-06T13:50:38.692Z,1.78
2023-03-06T13:51:55.633Z,2.6
2023-03-06T13:53:12.839Z,2.16
2023-03-06T13:54:29.853Z,1.08
2023-03-06T13:55:46.766Z,1.25
2023-03-06T13:57:03.583Z,1.13
2023-03-06T13:58:20.590Z,1.63
2023-03-06T13:59:37.576Z,1.27
2023-03-06T14:00:54.628Z,1.24
2023-03-06T14:02:11.683Z,0.8
2023-03-06T14:03:28.625Z,1.61
2023-03-06T14:04:45.586Z,2.05
2023-03-06T14:06:02.596Z,1.71
2023-03-06T14:07:19.720Z,1.29
2023-03-06T14:08:36.587Z,1.23
2023-03-06T14:09:53.602Z,1.62
2023-03-06T14:11:10.616Z,1.55
2023-03-06T14:12:27.686Z,2.14
2023-03-06T14:13:47.320Z,1.64
2023-03-06T14:15:01.610Z,1.38
2023-03-06T14:16:19.354Z,1.87
2023-03-06T14:17:36.606Z,2.61
2023-03-06T14:18:53.593Z,2.26
2023-03-06T14:20:10.676Z,1.22
2023-03-06T14:21:27.697Z,0.83
2023-03-06T14:22:44.720Z,0.72
2023-03-06T14:24:01.603Z,1.61
2023-03-06T14:25:18.630Z,1.64
2023-03-06T14:26:35.651Z,0.97
2023-03-06T14:27:53.609Z,1.08
2023-03-06T14:29:09.622Z,1.17
2023-03-06T14:30:26.645Z,0.43
2023-03-06T14:31:43.672Z,0.58
2023-03-06T14:33:00.659Z,0.57
2023-03-06T14:34:17.654Z,0.67
2023-03-06T14:35:34.708Z,0.2
2023-03-06T14:36:51.651Z,0.48
2023-03-06T14:38:08.678Z,0.67
2023-03-06T14:39:25.617Z,1
2023-03-06T14:40:42.638Z,0.59
2023-03-06T14:41:59.680Z,0.79
2023-03-06T14:43:16.709Z,1.23
2023-03-06T14:44:33.661Z,0.42
2023-03-06T14:45:50.673Z,0.49
2023-03-06T14:47:07.641Z,0.62
2023-03-06T14:48:24.694Z,0.42
2023-03-06T14:49:41.692Z,0
2023-03-06T14:50:58.760Z,0.28
2023-03-06T14:52:15.656Z,0.12
2023-03-06T14:53:32.703Z,0.55
2023-03-06T14:54:49.742Z,0.33
2023-03-06T14:56:06.704Z,0.25
2023-03-06T14:57:23.679Z,0
2023-03-06T14:58:40.659Z,0
2023-03-06T14:59:57.678Z,0.27
2023-03-06T15:01:14.742Z,0.15
2023-03-06T15:02:31.735Z,0.12
2023-03-06T15:03:48.735Z,0
2023-03-06T15:05:05.690Z,0
2023-03-06T15:06:22.764Z,0.33
2023-03-06T15:07:39.644Z,0.23
2023-03-06T15:08:56.733Z,0
2023-03-06T15:10:13.707Z,0
2023-03-06T15:11:30.734Z,0
2023-03-06T15:12:47.651Z,0
2023-03-06T15:14:04.718Z,0
2023-03-06T15:15:21.671Z,0
2023-03-06T15:16:38.743Z,0.23
2023-03-06T15:17:55.714Z,0
2023-03-06T15:19:12.677Z,0.38
2023-03-06T15:20:29.687Z,0
2023-03-06T15:21:46.725Z,0
2023-03-06T15:23:03.762Z,0.29
2023-03-06T15:24:20.719Z,0.38
2023-03-06T15:25:37.701Z,0.18
2023-03-06T15:26:54.664Z,0.24
2023-03-06T15:28:11.738Z,0.32
2023-03-06T15:29:28.734Z,0.3
2023-03-06T15:30:45.775Z,0.28
2023-03-06T15:32:03.023Z,0.27
2023-03-06T15:33:19.732Z,0
2023-03-06T15:34:36.701Z,0.23
2023-03-06T15:35:53.761Z,0.22
2023-03-06T15:37:10.699Z,0.27
2023-03-06T15:38:27.770Z,0.18
2023-03-06T15:39:44.752Z,0
2023-03-06T15:41:01.694Z,0
2023-03-06T15:42:18.695Z,0.33
2023-03-06T15:43:35.760Z,0.32
2023-03-06T15:44:52.721Z,0.15
2023-03-06T15:46:09.797Z,0.33
2023-03-06T15:47:26.713Z,0.23
2023-03-06T15:48:43.758Z,0.31
2023-03-06T15:50:00.947Z,0.2
2023-03-06T15:51:17.873Z,0.32
2023-03-06T15:52:34.727Z,0.19
2023-03-06T15:53:53.175Z,0
2023-03-06T15:55:08.760Z,0.16
2023-03-06T15:56:25.759Z,0
2023-03-06T15:57:42.716Z,0.41
2023-03-06T15:58:59.727Z,0.53
2023-03-06T16:00:26.795Z,0.47
2023-03-06T16:01:36.171Z,0.57
2023-03-06T16:02:51.726Z,0.43
2023-03-06T16:04:08.818Z,0.66
2023-03-06T16:05:25.730Z,0.7
2023-03-06T16:06:42.802Z,0.52
2023-03-06T16:07:59.768Z,0.72
2023-03-06T16:09:16.757Z,0.29
2023-03-06T16:10:33.808Z,0.35
2023-03-06T16:11:50.744Z,0.38
2023-03-06T16:13:07.822Z,0.59
2023-03-06T16:14:24.767Z,0.35
2023-03-06T16:15:41.932Z,0.49
2023-03-06T16:16:58.892Z,0.5
2023-03-06T16:18:15.775Z,0.51
2023-03-06T16:19:32.764Z,0.41
2023-03-06T16:20:49.744Z,0.36
2023-03-06T16:22:06.795Z,0.33
2023-03-06T16:23:23.759Z,0.25
2023-03-06T16:24:40.826Z,0.28
2023-03-06T16:25:57.848Z,0.24
2023-03-06T16:27:14.777Z,0.39
2023-03-06T16:28:31.786Z,0.46
2023-03-06T16:29:48.780Z,0.76
2023-03-06T16:31:05.866Z,0.68
2023-03-06T16:32:22.853Z,0.66
2023-03-06T16:33:39.780Z,0.6
2023-03-06T16:34:56.765Z,0.5
2023-03-06T16:36:13.808Z,0.25
2023-03-06T16:37:30.788Z,0.28
2023-03-06T16:38:47.769Z,0.6
2023-03-06T16:40:04.816Z,0.23
2023-03-06T16:41:21.859Z,0
2023-03-06T16:42:38.793Z,0.41
2023-03-06T16:43:55.785Z,0.43
2023-03-06T16:45:12.783Z,0.36
2023-03-06T16:46:29.822Z,0.45
2023-03-06T16:47:46.876Z,0.43
2023-03-06T16:49:03.845Z,0.26
2023-03-06T16:50:20.797Z,0.18
2023-03-06T16:51:37.819Z,0.41
2023-03-06T16:52:54.825Z,0.58
2023-03-06T16:54:11.841Z,0.55
2023-03-06T16:55:28.792Z,0.5
2023-03-06T16:56:45.910Z,0.54
2023-03-06T16:58:02.839Z,0.39
2023-03-06T16:59:19.872Z,0.46
2023-03-06T17:00:36.826Z,0.45
2023-03-06T17:01:53.831Z,0.35
2023-03-06T17:03:10.836Z,0.07
2023-03-06T17:04:28.273Z,0.28
2023-03-06T17:05:44.814Z,0.23
2023-03-06T17:07:01.834Z,0.14
2023-03-06T17:08:18.823Z,0.11
2023-03-06T17:09:35.836Z,0.26
2023-03-06T17:10:52.934Z,0
2023-03-06T17:12:09.883Z,0.49
2023-03-06T17:13:27.095Z,0.35
2023-03-06T17:14:43.981Z,0.32